Open Full Screen Window  High Contrast Mode
Wind Gusting 00 knots
20
June 18, 2018 3:50 PM PDT
Weather Information
Wind Direction
  250 °
Wind Speed
  20 kt (23 mph)
Wind Gust
  00 kt (0 mph)
Altimeter
29.99 in
Visibility
10 SM
Temperature
23° C
73° F
Dewpoint
13° C
55° F
Humidity
53%
1hr Rain Fall
00.00 in.
24hr Rain Fall
00.00 in.
Sky Condition
Clear
VFR

METAR KCVH 182250Z AUTO 25020KT 10SM CLR 23/13 A2999 RMK A01

FAA Disclaimer: The data displayed is for advisory purposes only and is not to be used for flight planning or operations.